createdAt,value
2023-01-26T00:01:13.790Z,97.00
2023-01-26T00:03:40.610Z,96.97
2023-01-26T00:06:09.915Z,96.92
2023-01-26T00:08:40.951Z,97.08
2023-01-26T00:11:09.880Z,97.25
2023-01-26T00:13:36.896Z,97.03
2023-01-26T00:16:03.906Z,97.25
2023-01-26T00:18:31.406Z,97.21
2023-01-26T00:20:59.596Z,97.09
2023-01-26T00:23:26.135Z,97.09
2023-01-26T00:25:52.638Z,96.87
2023-01-26T00:28:19.219Z,96.82
2023-01-26T00:30:45.955Z,97.17
2023-01-26T00:33:12.557Z,96.97
2023-01-26T00:35:39.195Z,96.96
2023-01-26T00:38:05.781Z,97.10
2023-01-26T00:40:33.797Z,97.49
2023-01-26T00:43:00.689Z,97.55
2023-01-26T00:45:27.835Z,97.30
2023-01-26T00:47:54.373Z,97.63
2023-01-26T00:50:20.875Z,97.43
2023-01-26T00:52:47.313Z,97.68
2023-01-26T00:55:13.948Z,97.44
2023-01-26T00:57:40.779Z,97.51
2023-01-26T01:00:09.397Z,97.30
2023-01-26T01:02:36.048Z,97.62
2023-01-26T01:05:02.546Z,97.44
2023-01-26T01:07:28.961Z,97.33
2023-01-26T01:09:55.456Z,97.65
2023-01-26T01:12:21.939Z,98.09
2023-01-26T01:14:48.490Z,97.97
2023-01-26T01:17:15.282Z,97.82
2023-01-26T01:19:41.895Z,97.98
2023-01-26T01:22:08.414Z,97.99
2023-01-26T01:24:35.311Z,97.86
2023-01-26T01:27:01.867Z,97.87
2023-01-26T01:29:28.722Z,98.00
2023-01-26T01:31:55.390Z,97.77
2023-01-26T01:34:22.886Z,98.00
2023-01-26T01:36:49.454Z,97.57
2023-01-26T01:41:41.765Z,97.82
2023-01-26T01:44:26.532Z,97.81
2023-01-26T01:47:02.982Z,97.80
2023-01-26T01:49:37.949Z,98.02
2023-01-26T01:52:28.853Z,97.82
2023-01-26T01:55:11.532Z,97.96
2023-01-26T01:57:46.172Z,97.92
2023-01-26T02:00:15.899Z,97.61
2023-01-26T02:03:09.587Z,97.49
2023-01-26T02:05:41.979Z,97.84
2023-01-26T02:08:11.166Z,97.54
2023-01-26T02:10:37.847Z,97.56
2023-01-26T02:13:06.324Z,97.82
2023-01-26T02:15:32.890Z,97.63
2023-01-26T02:18:04.198Z,97.75
2023-01-26T02:20:42.588Z,97.36
2023-01-26T02:23:47.746Z,97.20
2023-01-26T02:26:26.861Z,97.65
2023-01-26T02:28:54.500Z,96.97
2023-01-26T02:31:22.246Z,97.18
2023-01-26T02:33:49.406Z,97.13
2023-01-26T02:36:23.929Z,97.40
2023-01-26T02:39:09.444Z,97.17
2023-01-26T02:41:54.911Z,97.03
2023-01-26T02:44:22.211Z,97.43
2023-01-26T02:46:48.684Z,97.46
2023-01-26T02:49:35.786Z,97.42
2023-01-26T02:52:04.223Z,97.40
2023-01-26T02:54:51.245Z,97.35
2023-01-26T02:57:17.821Z,97.61
2023-01-26T02:59:45.142Z,97.23
2023-01-26T03:02:13.993Z,97.08
2023-01-26T03:04:41.438Z,97.47
2023-01-26T03:07:08.350Z,97.15
2023-01-26T03:09:34.869Z,97.37
2023-01-26T03:12:01.308Z,97.34
2023-01-26T03:14:28.441Z,97.63
2023-01-26T03:16:55.722Z,97.27
2023-01-26T03:19:41.552Z,97.04
2023-01-26T03:22:27.949Z,97.55
2023-01-26T03:25:13.470Z,97.19
2023-01-26T03:27:43.489Z,97.20
2023-01-26T03:30:13.469Z,97.31
2023-01-26T03:32:41.463Z,97.15
2023-01-26T03:35:22.640Z,97.34
2023-01-26T03:37:54.499Z,97.22
2023-01-26T03:40:52.893Z,97.26
2023-01-26T03:43:39.172Z,97.66
2023-01-26T03:46:25.985Z,97.08
2023-01-26T03:49:12.481Z,97.43
2023-01-26T03:51:58.124Z,97.27
2023-01-26T03:54:43.962Z,96.90
2023-01-26T03:57:10.529Z,97.33
2023-01-26T03:59:40.730Z,97.52
2023-01-26T04:02:31.238Z,97.45
2023-01-26T04:05:17.267Z,97.64
2023-01-26T04:08:05.922Z,97.22
2023-01-26T04:10:32.432Z,97.32
2023-01-26T04:13:20.373Z,97.71
2023-01-26T04:16:11.049Z,97.75
2023-01-26T04:18:56.221Z,97.67
2023-01-26T04:21:51.161Z,97.62
2023-01-26T04:24:22.462Z,97.66
2023-01-26T04:26:53.435Z,97.66
2023-01-26T04:29:24.149Z,97.93
2023-01-26T04:31:51.275Z,97.87
2023-01-26T04:34:20.392Z,97.69
2023-01-26T04:36:47.064Z,97.54
2023-01-26T04:39:15.435Z,97.92
2023-01-26T04:41:46.194Z,98.01
2023-01-26T04:44:15.049Z,98.04
2023-01-26T04:46:42.560Z,98.02
2023-01-26T04:49:11.727Z,98.12
2023-01-26T04:51:39.143Z,98.05
2023-01-26T04:54:05.751Z,98.05
2023-01-26T04:56:36.219Z,97.98
2023-01-26T04:59:06.706Z,98.13
2023-01-26T05:01:35.404Z,98.01
2023-01-26T05:04:05.614Z,97.77
2023-01-26T05:06:33.206Z,97.57
2023-01-26T05:08:59.792Z,97.62
2023-01-26T05:11:27.259Z,98.00
2023-01-26T05:14:05.884Z,98.21
2023-01-26T05:16:43.453Z,97.74
2023-01-26T05:19:24.063Z,98.05
2023-01-26T05:22:12.503Z,97.75
2023-01-26T05:24:42.900Z,97.88
2023-01-26T05:27:38.973Z,97.87
2023-01-26T05:30:06.027Z,97.93
2023-01-26T05:32:36.474Z,97.82
2023-01-26T05:35:04.221Z,98.23
2023-01-26T05:37:31.858Z,98.09
2023-01-26T05:39:58.757Z,98.14
2023-01-26T05:42:26.585Z,98.04
2023-01-26T05:45:07.485Z,97.70
2023-01-26T05:47:35.758Z,97.80
2023-01-26T05:50:02.417Z,97.90
2023-01-26T05:52:31.689Z,97.95
2023-01-26T05:54:59.210Z,97.87
2023-01-26T05:57:25.879Z,98.28
2023-01-26T06:00:00.108Z,97.96
2023-01-26T06:02:29.720Z,98.20
2023-01-26T06:04:56.495Z,97.91
2023-01-26T06:07:23.229Z,98.03
2023-01-26T06:10:05.000Z,97.89
2023-01-26T06:12:50.348Z,97.87
2023-01-26T06:15:21.016Z,97.88
2023-01-26T06:17:48.536Z,97.81
2023-01-26T06:20:15.748Z,97.81
2023-01-26T06:22:50.764Z,97.95
2023-01-26T06:25:17.246Z,97.76
2023-01-26T06:27:43.826Z,97.80
2023-01-26T06:30:21.284Z,98.18
2023-01-26T06:32:48.699Z,98.10
2023-01-26T06:35:17.289Z,98.27
2023-01-26T06:37:45.934Z,98.29
2023-01-26T06:40:13.143Z,98.50
2023-01-26T06:42:40.207Z,98.22
2023-01-26T06:45:07.962Z,98.56
2023-01-26T06:47:35.991Z,98.02
2023-01-26T06:50:03.751Z,98.45
2023-01-26T06:52:32.669Z,98.03
2023-01-26T06:55:39.456Z,98.04
2023-01-26T06:58:24.648Z,98.34
2023-01-26T07:01:18.338Z,98.55
2023-01-26T07:03:44.967Z,98.44
2023-01-26T07:06:11.625Z,98.52
2023-01-26T07:08:41.037Z,98.47
2023-01-26T07:11:09.271Z,98.07
2023-01-26T07:13:38.673Z,98.51
2023-01-26T07:16:15.337Z,98.42
2023-01-26T07:18:42.722Z,98.61
2023-01-26T07:21:18.188Z,98.48
2023-01-26T07:23:45.764Z,98.72
2023-01-26T07:26:12.514Z,98.71
2023-01-26T07:28:40.296Z,98.84
2023-01-26T07:31:08.396Z,98.74
2023-01-26T07:33:41.433Z,98.65
2023-01-26T07:36:11.085Z,98.32
2023-01-26T07:38:38.634Z,99.04
2023-01-26T07:41:08.348Z,99.07
2023-01-26T07:43:36.181Z,99.07
2023-01-26T07:46:03.309Z,98.80
2023-01-26T07:48:29.872Z,98.75
2023-01-26T07:51:00.968Z,99.19
2023-01-26T07:53:29.417Z,98.90
2023-01-26T07:56:09.661Z,99.12
2023-01-26T07:58:59.189Z,98.88
2023-01-26T08:01:25.783Z,99.01
2023-01-26T08:03:53.680Z,99.11
2023-01-26T08:06:21.202Z,99.02
2023-01-26T08:08:53.873Z,99.23
2023-01-26T08:11:23.316Z,99.41
2023-01-26T08:13:49.910Z,98.94
2023-01-26T08:16:16.606Z,98.86
2023-01-26T08:18:45.518Z,98.91
2023-01-26T08:21:13.976Z,99.10
2023-01-26T08:23:40.604Z,99.30
2023-01-26T08:26:09.639Z,99.08
2023-01-26T08:28:36.720Z,99.16
2023-01-26T08:31:06.920Z,99.06
2023-01-26T08:33:34.439Z,98.80
2023-01-26T08:36:06.473Z,99.43
2023-01-26T08:38:34.206Z,99.07
2023-01-26T08:41:01.777Z,99.03
2023-01-26T08:43:28.543Z,99.51
2023-01-26T08:45:55.693Z,99.22
2023-01-26T08:48:22.633Z,99.48
2023-01-26T08:50:53.860Z,99.20
2023-01-26T08:53:20.350Z,99.66
2023-01-26T08:55:46.974Z,99.63
2023-01-26T08:58:13.808Z,99.44
2023-01-26T09:00:40.739Z,99.81
2023-01-26T09:03:07.437Z,99.73
2023-01-26T09:05:37.020Z,99.75
2023-01-26T09:08:04.941Z,99.43
2023-01-26T09:10:31.934Z,99.34
2023-01-26T09:13:00.000Z,99.49
2023-01-26T09:15:27.492Z,99.50
2023-01-26T09:17:54.244Z,99.55
2023-01-26T09:20:20.730Z,99.44
2023-01-26T09:22:47.882Z,99.47
2023-01-26T09:25:14.601Z,99.55
2023-01-26T09:27:41.153Z,99.17
2023-01-26T09:30:10.932Z,99.61
2023-01-26T09:32:37.703Z,99.30
2023-01-26T09:35:04.646Z,99.30
2023-01-26T09:37:31.077Z,99.47
2023-01-26T09:39:57.522Z,99.11
2023-01-26T09:42:38.106Z,99.25
2023-01-26T09:45:10.802Z,99.21
2023-01-26T09:48:06.499Z,99.62
2023-01-26T09:50:46.481Z,99.66
2023-01-26T09:53:20.389Z,99.38
2023-01-26T09:55:51.286Z,99.24
2023-01-26T09:58:55.311Z,99.63
2023-01-26T10:01:31.515Z,99.72
2023-01-26T10:04:01.384Z,99.92
2023-01-26T10:06:31.331Z,99.77
2023-01-26T10:09:21.666Z,99.69
2023-01-26T10:11:53.319Z,99.73
2023-01-26T10:14:42.497Z,99.93
2023-01-26T10:17:17.803Z,100.00
2023-01-26T10:19:50.356Z,99.89
2023-01-26T10:22:50.173Z,99.97
2023-01-26T10:25:25.071Z,99.83
2023-01-26T10:27:52.624Z,99.92
2023-01-26T10:30:20.714Z,99.76
2023-01-26T10:32:51.451Z,99.92
2023-01-26T10:35:23.371Z,99.64
2023-01-26T10:37:52.673Z,99.95
2023-01-26T10:40:20.491Z,99.61
2023-01-26T10:42:58.088Z,100.00
2023-01-26T10:45:33.571Z,99.82
2023-01-26T10:48:26.784Z,100.00
2023-01-26T10:50:54.470Z,100.00
2023-01-26T10:53:28.316Z,100.00
2023-01-26T10:56:04.446Z,100.00
2023-01-26T10:58:47.003Z,100.00
2023-01-26T11:01:16.518Z,100.00
2023-01-26T11:04:03.303Z,100.00
2023-01-26T11:06:30.855Z,100.00
2023-01-26T11:09:18.987Z,100.00
2023-01-26T11:12:06.042Z,100.00
2023-01-26T11:14:33.066Z,100.00
2023-01-26T11:16:59.554Z,100.00
2023-01-26T11:20:02.827Z,100.00
2023-01-26T11:22:38.695Z,100.00
2023-01-26T11:25:24.675Z,100.00
2023-01-26T11:28:21.045Z,100.00
2023-01-26T11:31:04.329Z,100.00
2023-01-26T11:33:46.247Z,100.00
2023-01-26T11:36:30.542Z,100.00
2023-01-26T11:39:22.146Z,100.00
2023-01-26T11:42:07.608Z,100.00
2023-01-26T11:45:26.917Z,100.00
2023-01-26T11:48:11.588Z,100.00
2023-01-26T11:50:45.719Z,100.00
2023-01-26T11:53:20.392Z,100.00
2023-01-26T11:56:08.076Z,100.00
2023-01-26T11:58:42.374Z,100.00
2023-01-26T12:01:28.869Z,100.00
2023-01-26T12:03:56.416Z,100.00
2023-01-26T12:06:36.894Z,100.00
2023-01-26T12:09:12.625Z,100.00
2023-01-26T12:11:46.260Z,100.00
2023-01-26T12:14:29.589Z,100.00
2023-01-26T12:17:17.751Z,100.00
2023-01-26T12:20:00.241Z,100.00
2023-01-26T12:22:34.840Z,100.00
2023-01-26T12:25:31.332Z,100.00
2023-01-26T12:28:16.953Z,100.00
2023-01-26T12:30:52.057Z,100.00
2023-01-26T12:33:19.450Z,100.00
2023-01-26T12:35:56.941Z,100.00
2023-01-26T12:38:30.035Z,100.00
2023-01-26T12:41:05.317Z,100.00
2023-01-26T12:44:00.946Z,100.00
2023-01-26T12:46:32.425Z,100.00
2023-01-26T12:49:06.692Z,100.00
2023-01-26T12:51:39.540Z,100.00
2023-01-26T12:54:11.491Z,100.00
2023-01-26T12:56:44.560Z,100.00
2023-01-26T12:59:46.458Z,100.00
2023-01-26T13:02:39.702Z,100.00
2023-01-26T13:05:07.800Z,100.00
2023-01-26T13:07:37.419Z,100.00
2023-01-26T13:10:19.317Z,100.00
2023-01-26T13:12:55.001Z,100.00
2023-01-26T13:15:30.032Z,100.00
2023-01-26T13:18:03.534Z,100.00
2023-01-26T13:20:45.045Z,100.00
2023-01-26T13:23:37.581Z,100.00
2023-01-26T13:26:16.812Z,100.00
2023-01-26T13:28:44.787Z,100.00
2023-01-26T13:31:12.347Z,100.00
2023-01-26T13:33:41.018Z,100.00
2023-01-26T13:36:17.017Z,100.00
2023-01-26T13:38:48.677Z,100.00
2023-01-26T13:41:20.808Z,100.00
2023-01-26T13:44:06.599Z,100.00
2023-01-26T13:46:40.005Z,100.00
2023-01-26T13:49:23.896Z,100.00
2023-01-26T13:51:50.594Z,100.00
2023-01-26T13:54:17.867Z,100.00
2023-01-26T13:57:01.554Z,100.00
2023-01-26T13:59:28.111Z,100.00
2023-01-26T14:01:57.083Z,100.00
2023-01-26T14:04:25.056Z,100.00
2023-01-26T14:06:59.295Z,100.00
2023-01-26T14:09:27.989Z,100.00
2023-01-26T14:12:00.907Z,100.00
2023-01-26T14:14:31.151Z,100.00
2023-01-26T14:16:59.416Z,100.00
2023-01-26T14:19:28.195Z,100.00
2023-01-26T14:21:57.333Z,100.00
2023-01-26T14:24:41.374Z,100.00
2023-01-26T14:27:35.678Z,100.00
2023-01-26T14:30:22.831Z,100.00
2023-01-26T14:32:54.255Z,100.00
2023-01-26T14:35:23.341Z,100.00
2023-01-26T14:38:04.292Z,100.00
2023-01-26T14:40:30.825Z,100.00
2023-01-26T14:42:58.010Z,100.00
2023-01-26T14:45:30.441Z,100.00
2023-01-26T14:48:01.464Z,100.00
2023-01-26T14:50:32.528Z,100.00
2023-01-26T14:53:01.446Z,100.00
2023-01-26T14:55:34.467Z,100.00
2023-01-26T14:58:03.690Z,100.00
2023-01-26T15:00:36.508Z,100.00
2023-01-26T15:03:12.691Z,100.00
2023-01-26T15:05:43.238Z,100.00
2023-01-26T15:08:21.212Z,100.00
2023-01-26T15:11:19.148Z,100.00
2023-01-26T15:13:47.882Z,100.00
2023-01-26T15:16:20.282Z,100.00
2023-01-26T15:19:01.580Z,100.00
2023-01-26T15:21:33.941Z,100.00
2023-01-26T15:24:00.683Z,100.00
2023-01-26T15:26:35.940Z,100.00
2023-01-26T15:29:17.206Z,100.00
2023-01-26T15:31:43.796Z,100.00
2023-01-26T15:34:32.527Z,100.00
2023-01-26T15:36:59.935Z,100.00
2023-01-26T15:39:26.486Z,100.00
2023-01-26T15:42:21.087Z,100.00
2023-01-26T15:44:47.590Z,100.00
2023-01-26T15:47:14.073Z,100.00
2023-01-26T15:49:42.010Z,100.00
2023-01-26T15:52:21.385Z,100.00
2023-01-26T15:54:47.862Z,100.00
2023-01-26T15:57:14.432Z,100.00
2023-01-26T15:59:40.895Z,100.00
2023-01-26T16:02:18.909Z,100.00
2023-01-26T16:04:46.170Z,100.00
2023-01-26T16:07:15.936Z,100.00
2023-01-26T16:09:43.482Z,100.00
2023-01-26T16:12:30.377Z,100.00
2023-01-26T16:14:58.005Z,100.00
2023-01-26T16:17:24.652Z,100.00
2023-01-26T16:19:51.168Z,100.00
2023-01-26T16:22:17.799Z,100.00
2023-01-26T16:24:45.421Z,100.00
2023-01-26T16:27:12.118Z,100.00
2023-01-26T16:29:38.685Z,100.00
2023-01-26T16:32:31.494Z,100.00
2023-01-26T16:34:58.170Z,100.00
2023-01-26T16:37:24.771Z,100.00
2023-01-26T16:39:51.364Z,100.00
2023-01-26T16:42:19.900Z,100.00
2023-01-26T16:44:46.925Z,100.00
2023-01-26T16:47:13.381Z,100.00
2023-01-26T16:49:39.946Z,100.00
2023-01-26T16:52:08.184Z,100.00
2023-01-26T16:54:34.885Z,100.00
2023-01-26T16:57:01.437Z,100.00
2023-01-26T16:59:27.983Z,100.00
2023-01-26T17:01:54.623Z,100.00
2023-01-26T17:04:21.170Z,100.00
2023-01-26T17:06:47.724Z,100.00
2023-01-26T17:09:14.382Z,100.00
2023-01-26T17:11:40.986Z,100.00
2023-01-26T17:14:12.163Z,100.00
2023-01-26T17:16:39.227Z,100.00
2023-01-26T17:19:08.960Z,100.00
2023-01-26T17:21:35.738Z,100.00
2023-01-26T17:24:02.387Z,100.00
2023-01-26T17:26:30.959Z,100.00
2023-01-26T17:28:57.491Z,100.00
2023-01-26T17:31:24.948Z,100.00
2023-01-26T17:33:51.950Z,100.00
2023-01-26T17:36:19.132Z,100.00
2023-01-26T17:38:46.967Z,100.00
2023-01-26T17:41:13.642Z,100.00
2023-01-26T17:43:40.225Z,100.00
2023-01-26T17:46:18.024Z,100.00
2023-01-26T17:48:45.887Z,100.00
2023-01-26T17:51:16.382Z,100.00
2023-01-26T17:53:45.542Z,100.00
2023-01-26T17:56:14.475Z,100.00
2023-01-26T17:58:41.634Z,100.00
2023-01-26T18:01:09.988Z,100.00
2023-01-26T18:03:41.321Z,100.00
2023-01-26T18:06:08.192Z,100.00
2023-01-26T18:08:36.633Z,100.00
2023-01-26T18:11:05.358Z,100.00
2023-01-26T18:13:32.995Z,100.00
2023-01-26T18:15:59.967Z,100.00
2023-01-26T18:18:28.500Z,100.00
2023-01-26T18:20:55.553Z,100.00
2023-01-26T18:23:22.737Z,100.00
2023-01-26T18:25:49.639Z,100.00
2023-01-26T18:28:16.639Z,100.00
2023-01-26T18:30:43.181Z,100.00
2023-01-26T18:33:10.114Z,100.00
2023-01-26T18:35:36.738Z,100.00
2023-01-26T18:38:03.643Z,100.00
2023-01-26T18:40:30.864Z,100.00
2023-01-26T18:42:57.650Z,100.00
2023-01-26T18:45:24.360Z,100.00
2023-01-26T18:47:51.093Z,100.00
2023-01-26T18:50:17.792Z,100.00
2023-01-26T18:52:44.338Z,100.00
2023-01-26T18:55:11.634Z,100.00
2023-01-26T18:57:38.637Z,100.00
2023-01-26T19:00:07.909Z,100.00
2023-01-26T19:02:38.140Z,100.00
2023-01-26T19:05:08.382Z,100.00
2023-01-26T19:07:35.111Z,100.00
2023-01-26T19:10:02.224Z,100.00
2023-01-26T19:12:28.692Z,100.00
2023-01-26T19:14:55.339Z,100.00
2023-01-26T19:17:22.023Z,100.00
2023-01-26T19:19:50.942Z,100.00
2023-01-26T19:22:17.413Z,100.00
2023-01-26T19:24:44.215Z,100.00
2023-01-26T19:27:10.825Z,100.00
2023-01-26T19:29:37.319Z,100.00
2023-01-26T19:32:04.022Z,100.00
2023-01-26T19:34:31.972Z,100.00
2023-01-26T19:36:58.848Z,100.00
2023-01-26T19:39:25.332Z,100.00
2023-01-26T19:41:52.402Z,100.00
2023-01-26T19:44:18.861Z,100.00
2023-01-26T19:46:45.369Z,100.00
2023-01-26T19:49:13.421Z,100.00
2023-01-26T19:51:40.093Z,100.00
2023-01-26T19:54:06.689Z,100.00
2023-01-26T19:56:36.115Z,100.00
2023-01-26T19:59:05.416Z,100.00
2023-01-26T20:01:33.041Z,100.00
2023-01-26T20:04:03.159Z,100.00
2023-01-26T20:06:32.365Z,100.00
2023-01-26T20:08:59.377Z,100.00
2023-01-26T20:11:28.806Z,100.00
2023-01-26T20:14:00.067Z,100.00
2023-01-26T20:16:30.169Z,100.00
2023-01-26T20:18:58.657Z,100.00
2023-01-26T20:21:25.631Z,100.00
2023-01-26T20:23:55.222Z,100.00
2023-01-26T20:26:23.110Z,100.00
2023-01-26T20:28:49.798Z,100.00
2023-01-26T20:31:20.440Z,100.00
2023-01-26T20:33:51.512Z,100.00
2023-01-26T20:36:22.445Z,100.00
2023-01-26T20:38:49.814Z,100.00
2023-01-26T20:41:25.822Z,100.00
2023-01-26T20:44:00.417Z,100.00
2023-01-26T20:46:46.228Z,100.00
2023-01-26T20:49:15.637Z,100.00
2023-01-26T20:51:43.478Z,100.00
2023-01-26T20:54:13.215Z,100.00
2023-01-26T20:56:40.722Z,100.00
2023-01-26T20:59:07.727Z,100.00
2023-01-26T21:01:36.254Z,100.00
2023-01-26T21:04:05.191Z,100.00
2023-01-26T21:06:31.779Z,100.00
2023-01-26T21:08:59.794Z,100.00
2023-01-26T21:11:30.286Z,100.00
2023-01-26T21:13:58.441Z,100.00
2023-01-26T21:16:25.198Z,100.00
2023-01-26T21:18:51.890Z,100.00
2023-01-26T21:21:19.185Z,100.00
2023-01-26T21:23:46.109Z,100.00
2023-01-26T21:26:20.256Z,100.00
2023-01-26T21:28:52.843Z,99.92
2023-01-26T21:31:21.406Z,100.00
2023-01-26T21:33:49.139Z,99.78
2023-01-26T21:36:18.949Z,99.54
2023-01-26T21:38:48.103Z,99.19
2023-01-26T21:41:36.414Z,98.99
2023-01-26T21:44:17.987Z,98.80
2023-01-26T21:46:45.821Z,98.81
2023-01-26T21:49:13.003Z,98.63
2023-01-26T21:51:58.761Z,98.93
2023-01-26T21:54:25.688Z,98.57
2023-01-26T21:56:52.295Z,98.39
2023-01-26T21:59:19.384Z,98.30
2023-01-26T22:01:48.587Z,98.04
2023-01-26T22:04:18.294Z,97.77
2023-01-26T22:06:45.597Z,97.45
2023-01-26T22:09:14.738Z,97.33
2023-01-26T22:11:41.681Z,97.23
2023-01-26T22:14:13.431Z,96.45
2023-01-26T22:16:40.119Z,96.22
2023-01-26T22:19:08.239Z,96.07
2023-01-26T22:21:35.015Z,95.86
2023-01-26T22:24:02.049Z,95.71
2023-01-26T22:26:28.657Z,95.84
2023-01-26T22:28:57.164Z,95.72
2023-01-26T22:31:29.214Z,95.66
2023-01-26T22:33:57.330Z,95.59
2023-01-26T22:36:24.344Z,95.97
2023-01-26T22:38:51.147Z,96.08
2023-01-26T22:41:20.792Z,96.31
2023-01-26T22:43:49.370Z,96.02
2023-01-26T22:46:17.656Z,96.19
2023-01-26T22:48:44.706Z,96.40
2023-01-26T22:51:12.506Z,96.61
2023-01-26T22:53:39.873Z,96.69
2023-01-26T22:56:07.940Z,97.43
2023-01-26T22:58:39.735Z,97.73
2023-01-26T23:01:16.430Z,98.11
2023-01-26T23:03:46.321Z,98.16
2023-01-26T23:06:14.805Z,98.44
2023-01-26T23:08:42.406Z,98.72
2023-01-26T23:11:13.447Z,98.68
2023-01-26T23:13:42.353Z,99.09
2023-01-26T23:16:09.849Z,99.40
2023-01-26T23:18:36.830Z,99.61
2023-01-26T23:21:04.590Z,99.64
2023-01-26T23:23:31.785Z,100.00
2023-01-26T23:25:59.482Z,100.00
2023-01-26T23:28:31.758Z,100.00
2023-01-26T23:30:59.688Z,100.00
2023-01-26T23:33:28.398Z,100.00
2023-01-26T23:35:55.225Z,100.00
2023-01-26T23:38:23.352Z,100.00
2023-01-26T23:40:50.687Z,100.00
2023-01-26T23:43:17.869Z,100.00
2023-01-26T23:45:46.105Z,100.00
2023-01-26T23:48:12.973Z,100.00
2023-01-26T23:50:39.632Z,100.00
2023-01-26T23:53:06.747Z,100.00
2023-01-26T23:55:33.435Z,100.00
2023-01-26T23:57:59.893Z,100.00
